sensor_id;sensor_type;location;lat;lon;timestamp;temperature;humidity
80232;DHT22;70197;42.124;24.752;2023-10-08T00:01:08;16.00;40.20
80232;DHT22;70197;42.124;24.752;2023-10-08T00:03:38;16.00;40.50
80232;DHT22;70197;42.124;24.752;2023-10-08T00:06:04;16.00;40.70
80232;DHT22;70197;42.124;24.752;2023-10-08T00:08:35;15.90;40.90
80232;DHT22;70197;42.124;24.752;2023-10-08T00:11:01;15.90;41.90
80232;DHT22;70197;42.124;24.752;2023-10-08T00:13:35;15.90;40.70
80232;DHT22;70197;42.124;24.752;2023-10-08T00:16:12;15.90;41.80
80232;DHT22;70197;42.124;24.752;2023-10-08T00:18:43;16.00;41.00
80232;DHT22;70197;42.124;24.752;2023-10-08T00:21:17;15.90;41.40
80232;DHT22;70197;42.124;24.752;2023-10-08T00:23:51;16.00;41.40
80232;DHT22;70197;42.124;24.752;2023-10-08T00:26:23;15.90;40.60
80232;DHT22;70197;42.124;24.752;2023-10-08T00:31:25;15.80;41.30
80232;DHT22;70197;42.124;24.752;2023-10-08T00:33:56;15.80;41.70
80232;DHT22;70197;42.124;24.752;2023-10-08T00:36:22;15.70;41.00
80232;DHT22;70197;42.124;24.752;2023-10-08T00:38:50;15.70;41.20
80232;DHT22;70197;42.124;24.752;2023-10-08T00:41:19;15.70;41.30
80232;DHT22;70197;42.124;24.752;2023-10-08T00:43:48;15.80;41.40
80232;DHT22;70197;42.124;24.752;2023-10-08T00:46:16;15.80;41.30
80232;DHT22;70197;42.124;24.752;2023-10-08T00:49:02;15.70;40.40
80232;DHT22;70197;42.124;24.752;2023-10-08T00:52:03;15.70;41.20
80232;DHT22;70197;42.124;24.752;2023-10-08T00:54:49;15.60;40.80
80232;DHT22;70197;42.124;24.752;2023-10-08T00:57:30;15.60;40.80
80232;DHT22;70197;42.124;24.752;2023-10-08T00:59:57;15.60;40.90
80232;DHT22;70197;42.124;24.752;2023-10-08T01:02:28;15.60;41.20
80232;DHT22;70197;42.124;24.752;2023-10-08T01:05:08;15.60;40.90
80232;DHT22;70197;42.124;24.752;2023-10-08T01:07:36;15.50;42.30
80232;DHT22;70197;42.124;24.752;2023-10-08T01:10:02;15.50;41.60
80232;DHT22;70197;42.124;24.752;2023-10-08T01:12:35;15.50;41.20
80232;DHT22;70197;42.124;24.752;2023-10-08T01:15:10;15.50;42.30
80232;DHT22;70197;42.124;24.752;2023-10-08T01:17:44;15.50;42.20
80232;DHT22;70197;42.124;24.752;2023-10-08T01:20:16;15.50;41.20
80232;DHT22;70197;42.124;24.752;2023-10-08T01:23:06;15.50;42.40
80232;DHT22;70197;42.124;24.752;2023-10-08T01:25:42;15.50;42.60
80232;DHT22;70197;42.124;24.752;2023-10-08T01:28:08;15.50;41.80
80232;DHT22;70197;42.124;24.752;2023-10-08T01:30:39;15.50;42.20
80232;DHT22;70197;42.124;24.752;2023-10-08T01:33:12;15.50;42.40
80232;DHT22;70197;42.124;24.752;2023-10-08T01:35:40;15.40;42.50
80232;DHT22;70197;42.124;24.752;2023-10-08T01:38:06;15.30;42.40
80232;DHT22;70197;42.124;24.752;2023-10-08T01:40:32;15.30;42.20
80232;DHT22;70197;42.124;24.752;2023-10-08T01:42:58;15.30;42.80
80232;DHT22;70197;42.124;24.752;2023-10-08T01:45:29;15.30;42.80
80232;DHT22;70197;42.124;24.752;2023-10-08T01:47:56;15.20;42.70
80232;DHT22;70197;42.124;24.752;2023-10-08T01:50:22;15.20;43.30
80232;DHT22;70197;42.124;24.752;2023-10-08T01:52:50;15.20;42.80
80232;DHT22;70197;42.124;24.752;2023-10-08T01:55:19;15.20;42.20
80232;DHT22;70197;42.124;24.752;2023-10-08T01:57:49;15.20;42.40
80232;DHT22;70197;42.124;24.752;2023-10-08T02:00:19;15.20;42.60
80232;DHT22;70197;42.124;24.752;2023-10-08T02:02:50;15.20;42.70
80232;DHT22;70197;42.124;24.752;2023-10-08T02:05:17;15.20;42.50
80232;DHT22;70197;42.124;24.752;2023-10-08T02:07:44;15.20;42.70
80232;DHT22;70197;42.124;24.752;2023-10-08T02:10:11;15.20;42.90
80232;DHT22;70197;42.124;24.752;2023-10-08T02:12:42;15.10;42.90
80232;DHT22;70197;42.124;24.752;2023-10-08T02:15:08;15.10;42.60
80232;DHT22;70197;42.124;24.752;2023-10-08T02:17:37;15.10;43.20
80232;DHT22;70197;42.124;24.752;2023-10-08T02:20:04;15.10;43.10
80232;DHT22;70197;42.124;24.752;2023-10-08T02:22:31;15.00;42.30
80232;DHT22;70197;42.124;24.752;2023-10-08T02:24:58;15.00;43.20
80232;DHT22;70197;42.124;24.752;2023-10-08T02:27:27;15.00;43.70
80232;DHT22;70197;42.124;24.752;2023-10-08T02:29:53;15.00;43.50
80232;DHT22;70197;42.124;24.752;2023-10-08T02:32:20;15.00;43.70
80232;DHT22;70197;42.124;24.752;2023-10-08T02:34:48;15.00;44.90
80232;DHT22;70197;42.124;24.752;2023-10-08T02:37:13;15.00;43.60
80232;DHT22;70197;42.124;24.752;2023-10-08T02:39:40;15.00;43.40
80232;DHT22;70197;42.124;24.752;2023-10-08T02:42:06;14.90;43.00
80232;DHT22;70197;42.124;24.752;2023-10-08T02:44:36;14.90;43.40
80232;DHT22;70197;42.124;24.752;2023-10-08T02:47:08;14.90;43.60
80232;DHT22;70197;42.124;24.752;2023-10-08T02:49:34;14.80;43.40
80232;DHT22;70197;42.124;24.752;2023-10-08T02:52:02;14.80;43.80
80232;DHT22;70197;42.124;24.752;2023-10-08T02:54:29;14.80;44.10
80232;DHT22;70197;42.124;24.752;2023-10-08T02:57:01;14.80;44.30
80232;DHT22;70197;42.124;24.752;2023-10-08T02:59:36;14.80;43.90
80232;DHT22;70197;42.124;24.752;2023-10-08T03:02:09;14.70;44.40
80232;DHT22;70197;42.124;24.752;2023-10-08T03:04:43;14.70;44.00
80232;DHT22;70197;42.124;24.752;2023-10-08T03:07:12;14.80;44.70
80232;DHT22;70197;42.124;24.752;2023-10-08T03:09:47;14.70;44.30
80232;DHT22;70197;42.124;24.752;2023-10-08T03:12:15;14.70;44.80
80232;DHT22;70197;42.124;24.752;2023-10-08T03:14:42;14.60;44.40
80232;DHT22;70197;42.124;24.752;2023-10-08T03:17:29;14.70;44.50
80232;DHT22;70197;42.124;24.752;2023-10-08T03:19:55;14.70;45.00
80232;DHT22;70197;42.124;24.752;2023-10-08T03:22:27;14.60;44.10
80232;DHT22;70197;42.124;24.752;2023-10-08T03:24:59;14.70;44.30
80232;DHT22;70197;42.124;24.752;2023-10-08T03:27:40;14.70;44.60
80232;DHT22;70197;42.124;24.752;2023-10-08T03:30:08;14.60;44.50
80232;DHT22;70197;42.124;24.752;2023-10-08T03:32:43;14.60;45.30
80232;DHT22;70197;42.124;24.752;2023-10-08T03:35:10;14.60;44.80
80232;DHT22;70197;42.124;24.752;2023-10-08T03:37:37;14.60;45.40
80232;DHT22;70197;42.124;24.752;2023-10-08T03:40:07;14.50;45.70
80232;DHT22;70197;42.124;24.752;2023-10-08T03:42:51;14.50;44.50
80232;DHT22;70197;42.124;24.752;2023-10-08T03:45:17;14.40;44.80
80232;DHT22;70197;42.124;24.752;2023-10-08T03:48:02;14.50;46.20
80232;DHT22;70197;42.124;24.752;2023-10-08T03:50:34;14.50;45.10
80232;DHT22;70197;42.124;24.752;2023-10-08T03:53:07;14.50;44.70
80232;DHT22;70197;42.124;24.752;2023-10-08T03:55:39;14.50;44.50
80232;DHT22;70197;42.124;24.752;2023-10-08T03:58:09;14.40;44.30
80232;DHT22;70197;42.124;24.752;2023-10-08T04:00:55;14.40;44.40
80232;DHT22;70197;42.124;24.752;2023-10-08T04:03:44;14.50;44.30
80232;DHT22;70197;42.124;24.752;2023-10-08T04:06:22;14.50;43.80
80232;DHT22;70197;42.124;24.752;2023-10-08T04:08:54;14.50;43.30
80232;DHT22;70197;42.124;24.752;2023-10-08T04:11:38;14.50;44.20
80232;DHT22;70197;42.124;24.752;2023-10-08T04:14:17;14.50;44.20
80232;DHT22;70197;42.124;24.752;2023-10-08T04:16:43;14.40;44.10
80232;DHT22;70197;42.124;24.752;2023-10-08T04:19:10;14.40;44.50
80232;DHT22;70197;42.124;24.752;2023-10-08T04:21:36;14.40;44.40
80232;DHT22;70197;42.124;24.752;2023-10-08T04:24:02;14.40;44.00
80232;DHT22;70197;42.124;24.752;2023-10-08T04:26:31;14.30;43.80
80232;DHT22;70197;42.124;24.752;2023-10-08T04:28:59;14.40;44.60
80232;DHT22;70197;42.124;24.752;2023-10-08T04:31:28;14.40;44.60
80232;DHT22;70197;42.124;24.752;2023-10-08T04:34:02;14.40;44.80
80232;DHT22;70197;42.124;24.752;2023-10-08T04:36:33;14.40;45.00
80232;DHT22;70197;42.124;24.752;2023-10-08T04:38:59;14.30;44.40
80232;DHT22;70197;42.124;24.752;2023-10-08T04:41:30;14.30;44.90
80232;DHT22;70197;42.124;24.752;2023-10-08T04:43:56;14.30;45.00
80232;DHT22;70197;42.124;24.752;2023-10-08T04:46:22;14.30;44.60
80232;DHT22;70197;42.124;24.752;2023-10-08T04:49:15;14.30;44.50
80232;DHT22;70197;42.124;24.752;2023-10-08T04:51:58;14.40;44.40
80232;DHT22;70197;42.124;24.752;2023-10-08T04:54:25;14.40;44.00
80232;DHT22;70197;42.124;24.752;2023-10-08T04:56:59;14.50;44.00
80232;DHT22;70197;42.124;24.752;2023-10-08T04:59:28;14.50;44.40
80232;DHT22;70197;42.124;24.752;2023-10-08T05:02:04;14.40;44.70
80232;DHT22;70197;42.124;24.752;2023-10-08T05:04:49;14.50;44.90
80232;DHT22;70197;42.124;24.752;2023-10-08T05:07:21;14.60;45.00
80232;DHT22;70197;42.124;24.752;2023-10-08T05:09:52;14.70;45.50
80232;DHT22;70197;42.124;24.752;2023-10-08T05:12:37;14.90;44.90
80232;DHT22;70197;42.124;24.752;2023-10-08T05:15:07;14.70;44.80
80232;DHT22;70197;42.124;24.752;2023-10-08T05:17:46;14.90;45.40
80232;DHT22;70197;42.124;24.752;2023-10-08T05:20:16;15.20;43.20
80232;DHT22;70197;42.124;24.752;2023-10-08T05:23:00;15.30;43.70
80232;DHT22;70197;42.124;24.752;2023-10-08T05:25:49;15.60;41.20
80232;DHT22;70197;42.124;24.752;2023-10-08T05:28:35;15.80;40.90
80232;DHT22;70197;42.124;24.752;2023-10-08T05:31:08;16.10;40.70
80232;DHT22;70197;42.124;24.752;2023-10-08T05:33:42;16.30;39.40
80232;DHT22;70197;42.124;24.752;2023-10-08T05:36:27;16.50;38.80
80232;DHT22;70197;42.124;24.752;2023-10-08T05:39:16;16.70;38.30
80232;DHT22;70197;42.124;24.752;2023-10-08T05:41:55;16.90;38.60
80232;DHT22;70197;42.124;24.752;2023-10-08T05:44:44;17.10;38.70
80232;DHT22;70197;42.124;24.752;2023-10-08T05:47:32;17.30;37.30
80232;DHT22;70197;42.124;24.752;2023-10-08T05:49:59;17.40;36.40
80232;DHT22;70197;42.124;24.752;2023-10-08T05:52:57;17.60;36.10
80232;DHT22;70197;42.124;24.752;2023-10-08T05:55:22;17.70;36.20
80232;DHT22;70197;42.124;24.752;2023-10-08T05:57:55;17.90;36.70
80232;DHT22;70197;42.124;24.752;2023-10-08T06:00:50;18.10;35.40
80232;DHT22;70197;42.124;24.752;2023-10-08T06:03:20;18.40;35.40
80232;DHT22;70197;42.124;24.752;2023-10-08T06:05:59;18.50;34.00
80232;DHT22;70197;42.124;24.752;2023-10-08T06:08:45;18.70;33.80
80232;DHT22;70197;42.124;24.752;2023-10-08T06:11:29;19.00;33.30
80232;DHT22;70197;42.124;24.752;2023-10-08T06:14:07;19.20;33.60
80232;DHT22;70197;42.124;24.752;2023-10-08T06:16:45;19.40;32.60
80232;DHT22;70197;42.124;24.752;2023-10-08T06:19:12;19.60;33.00
80232;DHT22;70197;42.124;24.752;2023-10-08T06:21:41;19.60;32.80
80232;DHT22;70197;42.124;24.752;2023-10-08T06:24:08;20.00;32.30
80232;DHT22;70197;42.124;24.752;2023-10-08T06:26:42;20.10;31.70
80232;DHT22;70197;42.124;24.752;2023-10-08T06:29:11;20.30;32.30
80232;DHT22;70197;42.124;24.752;2023-10-08T06:31:59;20.40;31.80
80232;DHT22;70197;42.124;24.752;2023-10-08T06:34:31;20.80;31.30
80232;DHT22;70197;42.124;24.752;2023-10-08T06:36:59;21.10;30.40
80232;DHT22;70197;42.124;24.752;2023-10-08T06:39:25;21.10;29.90
80232;DHT22;70197;42.124;24.752;2023-10-08T06:41:58;21.50;30.00
80232;DHT22;70197;42.124;24.752;2023-10-08T06:44:25;21.70;30.50
80232;DHT22;70197;42.124;24.752;2023-10-08T06:46:52;22.10;29.40
80232;DHT22;70197;42.124;24.752;2023-10-08T06:49:20;22.50;29.60
80232;DHT22;70197;42.124;24.752;2023-10-08T06:51:49;23.20;28.70
80232;DHT22;70197;42.124;24.752;2023-10-08T06:54:16;24.10;27.90
80232;DHT22;70197;42.124;24.752;2023-10-08T06:56:46;25.50;25.60
80232;DHT22;70197;42.124;24.752;2023-10-08T06:59:15;27.00;24.70
80232;DHT22;70197;42.124;24.752;2023-10-08T07:01:42;28.60;22.30
80232;DHT22;70197;42.124;24.752;2023-10-08T07:04:12;30.00;20.90
80232;DHT22;70197;42.124;24.752;2023-10-08T07:06:42;31.00;19.70
80232;DHT22;70197;42.124;24.752;2023-10-08T07:09:16;31.70;18.90
80232;DHT22;70197;42.124;24.752;2023-10-08T07:11:51;32.00;18.20
80232;DHT22;70197;42.124;24.752;2023-10-08T07:14:29;32.30;18.00
80232;DHT22;70197;42.124;24.752;2023-10-08T07:17:00;31.90;17.80
80232;DHT22;70197;42.124;24.752;2023-10-08T07:19:30;31.90;17.80
80232;DHT22;70197;42.124;24.752;2023-10-08T07:22:03;31.50;18.30
80232;DHT22;70197;42.124;24.752;2023-10-08T07:24:38;31.40;18.40
80232;DHT22;70197;42.124;24.752;2023-10-08T07:27:05;31.20;18.50
80232;DHT22;70197;42.124;24.752;2023-10-08T07:29:35;30.90;18.50
80232;DHT22;70197;42.124;24.752;2023-10-08T07:32:01;30.70;18.70
80232;DHT22;70197;42.124;24.752;2023-10-08T07:34:38;30.70;18.80
80232;DHT22;70197;42.124;24.752;2023-10-08T07:37:04;30.50;19.00
80232;DHT22;70197;42.124;24.752;2023-10-08T07:39:36;30.40;19.00
80232;DHT22;70197;42.124;24.752;2023-10-08T07:42:10;30.60;19.00
80232;DHT22;70197;42.124;24.752;2023-10-08T07:44:36;30.60;18.80
80232;DHT22;70197;42.124;24.752;2023-10-08T07:47:04;30.70;18.80
80232;DHT22;70197;42.124;24.752;2023-10-08T07:49:34;30.90;18.70
80232;DHT22;70197;42.124;24.752;2023-10-08T07:52:01;31.20;18.70
80232;DHT22;70197;42.124;24.752;2023-10-08T07:54:30;31.70;18.30
80232;DHT22;70197;42.124;24.752;2023-10-08T07:57:00;32.10;17.50
80232;DHT22;70197;42.124;24.752;2023-10-08T08:02:13;32.70;17.10
80232;DHT22;70197;42.124;24.752;2023-10-08T08:04:41;33.20;16.70
80232;DHT22;70197;42.124;24.752;2023-10-08T08:07:09;33.60;16.10
80232;DHT22;70197;42.124;24.752;2023-10-08T08:09:44;34.10;15.80
80232;DHT22;70197;42.124;24.752;2023-10-08T08:12:17;34.80;15.20
80232;DHT22;70197;42.124;24.752;2023-10-08T08:14:44;35.20;13.40
80232;DHT22;70197;42.124;24.752;2023-10-08T08:17:10;35.80;13.80
80232;DHT22;70197;42.124;24.752;2023-10-08T08:19:41;36.70;13.00
80232;DHT22;70197;42.124;24.752;2023-10-08T08:22:07;37.40;12.20
80232;DHT22;70197;42.124;24.752;2023-10-08T08:24:33;38.00;11.60
80232;DHT22;70197;42.124;24.752;2023-10-08T08:27:03;38.40;11.20
80232;DHT22;70197;42.124;24.752;2023-10-08T08:29:37;39.00;11.10
80232;DHT22;70197;42.124;24.752;2023-10-08T08:32:13;39.80;10.60
80232;DHT22;70197;42.124;24.752;2023-10-08T08:34:45;39.80;10.50
80232;DHT22;70197;42.124;24.752;2023-10-08T08:37:11;38.10;11.10
80232;DHT22;70197;42.124;24.752;2023-10-08T08:39:38;36.20;11.70
80232;DHT22;70197;42.124;24.752;2023-10-08T08:42:04;34.70;12.90
80232;DHT22;70197;42.124;24.752;2023-10-08T08:44:37;33.70;13.90
80232;DHT22;70197;42.124;24.752;2023-10-08T08:47:12;32.60;14.20
80232;DHT22;70197;42.124;24.752;2023-10-08T08:49:42;31.80;14.60
80232;DHT22;70197;42.124;24.752;2023-10-08T08:52:08;31.40;15.00
80232;DHT22;70197;42.124;24.752;2023-10-08T08:54:34;30.80;15.40
80232;DHT22;70197;42.124;24.752;2023-10-08T08:57:03;30.30;15.80
80232;DHT22;70197;42.124;24.752;2023-10-08T08:59:30;30.00;17.20
80232;DHT22;70197;42.124;24.752;2023-10-08T09:02:00;29.80;16.50
80232;DHT22;70197;42.124;24.752;2023-10-08T09:04:30;29.70;16.40
80232;DHT22;70197;42.124;24.752;2023-10-08T09:06:57;29.50;16.80
80232;DHT22;70197;42.124;24.752;2023-10-08T09:09:25;29.10;17.20
80232;DHT22;70197;42.124;24.752;2023-10-08T09:11:56;28.30;17.50
80232;DHT22;70197;42.124;24.752;2023-10-08T09:14:24;28.30;17.80
80232;DHT22;70197;42.124;24.752;2023-10-08T09:16:53;28.30;17.90
80232;DHT22;70197;42.124;24.752;2023-10-08T09:19:23;28.10;17.90
80232;DHT22;70197;42.124;24.752;2023-10-08T09:22:06;28.00;18.10
80232;DHT22;70197;42.124;24.752;2023-10-08T09:24:34;27.80;18.20
80232;DHT22;70197;42.124;24.752;2023-10-08T09:27:11;27.70;18.40
80232;DHT22;70197;42.124;24.752;2023-10-08T09:29:40;27.50;18.60
80232;DHT22;70197;42.124;24.752;2023-10-08T09:32:08;27.10;18.80
80232;DHT22;70197;42.124;24.752;2023-10-08T09:34:35;26.80;19.00
80232;DHT22;70197;42.124;24.752;2023-10-08T09:37:02;26.70;19.80
80232;DHT22;70197;42.124;24.752;2023-10-08T09:39:29;26.40;19.60
80232;DHT22;70197;42.124;24.752;2023-10-08T09:42:00;25.70;20.00
80232;DHT22;70197;42.124;24.752;2023-10-08T09:44:28;25.30;20.50
80232;DHT22;70197;42.124;24.752;2023-10-08T09:47:02;24.90;20.50
80232;DHT22;70197;42.124;24.752;2023-10-08T09:49:41;24.90;20.80
80232;DHT22;70197;42.124;24.752;2023-10-08T09:52:09;24.90;21.00
80232;DHT22;70197;42.124;24.752;2023-10-08T09:54:52;24.90;21.10
80232;DHT22;70197;42.124;24.752;2023-10-08T09:57:20;24.90;21.10
80232;DHT22;70197;42.124;24.752;2023-10-08T09:59:49;25.00;21.00
80232;DHT22;70197;42.124;24.752;2023-10-08T10:02:17;24.90;21.10
80232;DHT22;70197;42.124;24.752;2023-10-08T10:04:43;25.10;20.90
80232;DHT22;70197;42.124;24.752;2023-10-08T10:07:11;25.20;20.60
80232;DHT22;70197;42.124;24.752;2023-10-08T10:09:45;25.10;20.60
80232;DHT22;70197;42.124;24.752;2023-10-08T10:12:21;25.20;21.10
80232;DHT22;70197;42.124;24.752;2023-10-08T10:14:52;25.10;21.10
80232;DHT22;70197;42.124;24.752;2023-10-08T10:17:24;25.30;21.20
80232;DHT22;70197;42.124;24.752;2023-10-08T10:19:54;25.20;21.40
80232;DHT22;70197;42.124;24.752;2023-10-08T10:22:34;25.30;21.70
80232;DHT22;70197;42.124;24.752;2023-10-08T10:25:03;25.30;21.60
80232;DHT22;70197;42.124;24.752;2023-10-08T10:30:21;24.90;21.50
80232;DHT22;70197;42.124;24.752;2023-10-08T10:32:51;24.70;21.80
80232;DHT22;70197;42.124;24.752;2023-10-08T10:35:17;24.60;21.90
80232;DHT22;70197;42.124;24.752;2023-10-08T10:37:46;24.70;22.00
80232;DHT22;70197;42.124;24.752;2023-10-08T10:40:20;24.70;23.10
80232;DHT22;70197;42.124;24.752;2023-10-08T10:42:58;24.90;22.50
80232;DHT22;70197;42.124;24.752;2023-10-08T10:45:29;24.70;22.60
80232;DHT22;70197;42.124;24.752;2023-10-08T10:48:06;24.40;22.70
80232;DHT22;70197;42.124;24.752;2023-10-08T10:50:45;24.40;23.50
80232;DHT22;70197;42.124;24.752;2023-10-08T10:53:42;24.40;23.20
80232;DHT22;70197;42.124;24.752;2023-10-08T10:56:23;24.10;23.40
80232;DHT22;70197;42.124;24.752;2023-10-08T10:58:59;24.00;23.90
80232;DHT22;70197;42.124;24.752;2023-10-08T11:01:28;23.90;24.20
80232;DHT22;70197;42.124;24.752;2023-10-08T11:03:56;23.80;24.30
80232;DHT22;70197;42.124;24.752;2023-10-08T11:06:25;23.80;24.40
80232;DHT22;70197;42.124;24.752;2023-10-08T11:08:54;23.80;24.10
80232;DHT22;70197;42.124;24.752;2023-10-08T11:11:28;23.90;24.90
80232;DHT22;70197;42.124;24.752;2023-10-08T11:13:58;23.90;24.50
80232;DHT22;70197;42.124;24.752;2023-10-08T11:16:26;23.80;24.60
80232;DHT22;70197;42.124;24.752;2023-10-08T11:18:53;23.70;24.50
80232;DHT22;70197;42.124;24.752;2023-10-08T11:21:23;23.80;25.00
80232;DHT22;70197;42.124;24.752;2023-10-08T11:23:50;23.80;25.10
80232;DHT22;70197;42.124;24.752;2023-10-08T11:26:25;23.80;25.10
80232;DHT22;70197;42.124;24.752;2023-10-08T11:28:57;23.80;25.10
80232;DHT22;70197;42.124;24.752;2023-10-08T11:31:26;23.80;24.80
80232;DHT22;70197;42.124;24.752;2023-10-08T11:33:59;23.80;25.00
80232;DHT22;70197;42.124;24.752;2023-10-08T11:36:27;23.80;25.40
80232;DHT22;70197;42.124;24.752;2023-10-08T11:38:54;24.00;25.60
80232;DHT22;70197;42.124;24.752;2023-10-08T11:41:26;24.10;25.80
80232;DHT22;70197;42.124;24.752;2023-10-08T11:43:54;24.10;25.40
80232;DHT22;70197;42.124;24.752;2023-10-08T11:46:29;24.20;25.80
80232;DHT22;70197;42.124;24.752;2023-10-08T11:49:07;24.40;25.50
80232;DHT22;70197;42.124;24.752;2023-10-08T11:51:37;24.30;25.30
80232;DHT22;70197;42.124;24.752;2023-10-08T11:54:05;24.10;25.50
80232;DHT22;70197;42.124;24.752;2023-10-08T11:56:32;24.10;25.60
80232;DHT22;70197;42.124;24.752;2023-10-08T11:59:01;24.10;26.60
80232;DHT22;70197;42.124;24.752;2023-10-08T12:01:27;24.20;25.60
80232;DHT22;70197;42.124;24.752;2023-10-08T12:03:55;24.30;25.50
80232;DHT22;70197;42.124;24.752;2023-10-08T12:06:25;24.20;25.50
80232;DHT22;70197;42.124;24.752;2023-10-08T12:08:50;24.30;25.90
80232;DHT22;70197;42.124;24.752;2023-10-08T12:11:19;24.50;26.80
80232;DHT22;70197;42.124;24.752;2023-10-08T12:13:48;24.50;25.70
80232;DHT22;70197;42.124;24.752;2023-10-08T12:16:15;24.50;26.10
80232;DHT22;70197;42.124;24.752;2023-10-08T12:18:46;24.40;25.50
80232;DHT22;70197;42.124;24.752;2023-10-08T12:21:20;24.40;26.40
80232;DHT22;70197;42.124;24.752;2023-10-08T12:23:46;24.40;26.20
80232;DHT22;70197;42.124;24.752;2023-10-08T12:26:13;24.30;26.30
80232;DHT22;70197;42.124;24.752;2023-10-08T12:28:43;24.20;26.40
80232;DHT22;70197;42.124;24.752;2023-10-08T12:31:20;24.20;26.30
80232;DHT22;70197;42.124;24.752;2023-10-08T12:33:50;24.20;27.70
80232;DHT22;70197;42.124;24.752;2023-10-08T12:36:20;24.10;27.50
80232;DHT22;70197;42.124;24.752;2023-10-08T12:38:48;24.10;27.60
80232;DHT22;70197;42.124;24.752;2023-10-08T12:41:14;23.90;27.10
80232;DHT22;70197;42.124;24.752;2023-10-08T12:43:45;23.80;26.80
80232;DHT22;70197;42.124;24.752;2023-10-08T12:46:14;23.80;26.50
80232;DHT22;70197;42.124;24.752;2023-10-08T12:48:53;23.80;26.70
80232;DHT22;70197;42.124;24.752;2023-10-08T12:51:21;23.90;26.50
80232;DHT22;70197;42.124;24.752;2023-10-08T12:53:50;23.90;26.40
80232;DHT22;70197;42.124;24.752;2023-10-08T12:56:16;23.80;26.60
80232;DHT22;70197;42.124;24.752;2023-10-08T12:58:43;23.80;27.30
80232;DHT22;70197;42.124;24.752;2023-10-08T13:01:15;23.80;28.60
80232;DHT22;70197;42.124;24.752;2023-10-08T13:03:44;23.90;27.30
80232;DHT22;70197;42.124;24.752;2023-10-08T13:06:21;23.90;27.80
80232;DHT22;70197;42.124;24.752;2023-10-08T13:08:48;23.90;26.60
80232;DHT22;70197;42.124;24.752;2023-10-08T13:11:14;23.80;26.60
80232;DHT22;70197;42.124;24.752;2023-10-08T13:13:40;23.70;26.90
80232;DHT22;70197;42.124;24.752;2023-10-08T13:16:07;23.80;27.30
80232;DHT22;70197;42.124;24.752;2023-10-08T13:18:35;23.80;27.40
80232;DHT22;70197;42.124;24.752;2023-10-08T13:21:05;23.80;27.10
80232;DHT22;70197;42.124;24.752;2023-10-08T13:23:32;23.80;27.00
80232;DHT22;70197;42.124;24.752;2023-10-08T13:26:01;23.70;26.70
80232;DHT22;70197;42.124;24.752;2023-10-08T13:28:30;23.70;27.20
80232;DHT22;70197;42.124;24.752;2023-10-08T13:31:05;23.60;26.70
80232;DHT22;70197;42.124;24.752;2023-10-08T13:33:41;23.60;26.90
80232;DHT22;70197;42.124;24.752;2023-10-08T13:36:15;23.60;27.40
80232;DHT22;70197;42.124;24.752;2023-10-08T13:38:42;23.70;28.20
80232;DHT22;70197;42.124;24.752;2023-10-08T13:41:08;23.70;27.20
80232;DHT22;70197;42.124;24.752;2023-10-08T13:43:50;23.70;27.00
80232;DHT22;70197;42.124;24.752;2023-10-08T13:46:20;23.70;27.00
80232;DHT22;70197;42.124;24.752;2023-10-08T13:48:48;23.60;27.10
80232;DHT22;70197;42.124;24.752;2023-10-08T13:51:16;23.50;27.10
80232;DHT22;70197;42.124;24.752;2023-10-08T13:53:56;23.60;27.10
80232;DHT22;70197;42.124;24.752;2023-10-08T13:56:26;23.50;26.80
80232;DHT22;70197;42.124;24.752;2023-10-08T13:58:53;23.50;27.10
80232;DHT22;70197;42.124;24.752;2023-10-08T14:01:30;23.40;27.10
80232;DHT22;70197;42.124;24.752;2023-10-08T14:03:59;23.40;27.30
80232;DHT22;70197;42.124;24.752;2023-10-08T14:06:31;23.30;27.30
80232;DHT22;70197;42.124;24.752;2023-10-08T14:08:57;23.40;27.10
80232;DHT22;70197;42.124;24.752;2023-10-08T14:11:23;23.40;27.10
80232;DHT22;70197;42.124;24.752;2023-10-08T14:13:56;23.40;27.10
80232;DHT22;70197;42.124;24.752;2023-10-08T14:16:22;23.40;27.00
80232;DHT22;70197;42.124;24.752;2023-10-08T14:18:55;23.40;26.90
80232;DHT22;70197;42.124;24.752;2023-10-08T14:21:22;23.40;26.80
80232;DHT22;70197;42.124;24.752;2023-10-08T14:23:56;23.40;26.80
80232;DHT22;70197;42.124;24.752;2023-10-08T14:26:22;23.40;27.00
80232;DHT22;70197;42.124;24.752;2023-10-08T14:28:49;23.40;27.00
80232;DHT22;70197;42.124;24.752;2023-10-08T14:31:24;23.30;27.10
80232;DHT22;70197;42.124;24.752;2023-10-08T14:33:52;23.30;27.20
80232;DHT22;70197;42.124;24.752;2023-10-08T14:36:23;23.20;27.20
80232;DHT22;70197;42.124;24.752;2023-10-08T14:39:07;23.20;27.30
80232;DHT22;70197;42.124;24.752;2023-10-08T14:41:51;23.00;27.30
80232;DHT22;70197;42.124;24.752;2023-10-08T14:44:36;22.90;27.30
80232;DHT22;70197;42.124;24.752;2023-10-08T14:47:05;22.80;27.50
80232;DHT22;70197;42.124;24.752;2023-10-08T14:49:32;22.70;27.50
80232;DHT22;70197;42.124;24.752;2023-10-08T14:51:59;22.70;27.60
80232;DHT22;70197;42.124;24.752;2023-10-08T14:54:24;22.60;27.70
80232;DHT22;70197;42.124;24.752;2023-10-08T14:56:51;22.60;27.80
80232;DHT22;70197;42.124;24.752;2023-10-08T14:59:17;22.50;27.70
80232;DHT22;70197;42.124;24.752;2023-10-08T15:01:46;22.60;27.60
80232;DHT22;70197;42.124;24.752;2023-10-08T15:04:13;22.70;27.60
80232;DHT22;70197;42.124;24.752;2023-10-08T15:06:39;22.60;27.60
80232;DHT22;70197;42.124;24.752;2023-10-08T15:09:07;22.60;27.60
80232;DHT22;70197;42.124;24.752;2023-10-08T15:11:35;22.50;27.70
80232;DHT22;70197;42.124;24.752;2023-10-08T15:14:02;22.50;27.90
80232;DHT22;70197;42.124;24.752;2023-10-08T15:16:36;22.50;27.90
80232;DHT22;70197;42.124;24.752;2023-10-08T15:19:02;22.60;27.80
80232;DHT22;70197;42.124;24.752;2023-10-08T15:21:30;22.40;28.00
80232;DHT22;70197;42.124;24.752;2023-10-08T15:23:59;22.40;28.10
80232;DHT22;70197;42.124;24.752;2023-10-08T15:26:33;22.50;28.20
80232;DHT22;70197;42.124;24.752;2023-10-08T15:28:59;22.50;29.20
80232;DHT22;70197;42.124;24.752;2023-10-08T15:31:25;22.50;28.40
80232;DHT22;70197;42.124;24.752;2023-10-08T15:33:50;22.50;28.50
80232;DHT22;70197;42.124;24.752;2023-10-08T15:36:16;22.40;28.50
80232;DHT22;70197;42.124;24.752;2023-10-08T15:38:42;22.40;28.50
80232;DHT22;70197;42.124;24.752;2023-10-08T15:41:07;22.40;28.60
80232;DHT22;70197;42.124;24.752;2023-10-08T15:43:35;22.40;28.80
80232;DHT22;70197;42.124;24.752;2023-10-08T15:46:00;22.30;28.70
80232;DHT22;70197;42.124;24.752;2023-10-08T15:48:27;22.40;28.80